sensor_id;sensor_type;location;lat;lon;timestamp;temperature;humidity
7654;DHT22;3869;48.406;10.774;2022-10-16T00:00:57;14.10;99.90
7654;DHT22;3869;48.406;10.774;2022-10-16T00:03:27;14.10;99.90
7654;DHT22;3869;48.406;10.774;2022-10-16T00:05:59;14.00;99.90
7654;DHT22;3869;48.406;10.774;2022-10-16T00:08:28;14.10;99.90
7654;DHT22;3869;48.406;10.774;2022-10-16T00:11:00;14.10;99.90
7654;DHT22;3869;48.406;10.774;2022-10-16T00:13:28;14.00;99.90
7654;DHT22;3869;48.406;10.774;2022-10-16T00:15:57;14.00;99.90
7654;DHT22;3869;48.406;10.774;2022-10-16T00:18:27;14.00;99.90
7654;DHT22;3869;48.406;10.774;2022-10-16T00:20:55;14.00;99.90
7654;DHT22;3869;48.406;10.774;2022-10-16T00:23:24;13.90;99.90
7654;DHT22;3869;48.406;10.774;2022-10-16T00:25:55;14.00;99.90
7654;DHT22;3869;48.406;10.774;2022-10-16T00:28:24;13.90;99.90
7654;DHT22;3869;48.406;10.774;2022-10-16T00:30:53;13.90;99.90
7654;DHT22;3869;48.406;10.774;2022-10-16T00:33:21;13.90;99.90
7654;DHT22;3869;48.406;10.774;2022-10-16T00:35:50;13.90;99.90
7654;DHT22;3869;48.406;10.774;2022-10-16T00:38:18;13.90;99.90
7654;DHT22;3869;48.406;10.774;2022-10-16T00:40:46;13.90;99.90
7654;DHT22;3869;48.406;10.774;2022-10-16T00:43:33;13.90;99.90
7654;DHT22;3869;48.406;10.774;2022-10-16T00:46:03;13.90;99.90
7654;DHT22;3869;48.406;10.774;2022-10-16T00:48:31;13.90;99.90
7654;DHT22;3869;48.406;10.774;2022-10-16T00:51:01;13.90;99.90
7654;DHT22;3869;48.406;10.774;2022-10-16T00:53:29;13.90;99.90
7654;DHT22;3869;48.406;10.774;2022-10-16T00:55:58;13.90;99.90
7654;DHT22;3869;48.406;10.774;2022-10-16T00:58:26;13.80;99.90
7654;DHT22;3869;48.406;10.774;2022-10-16T01:00:54;13.80;99.90
7654;DHT22;3869;48.406;10.774;2022-10-16T01:03:24;13.80;99.90
7654;DHT22;3869;48.406;10.774;2022-10-16T01:06:09;13.80;99.90
7654;DHT22;3869;48.406;10.774;2022-10-16T01:08:50;13.80;99.90
7654;DHT22;3869;48.406;10.774;2022-10-16T01:11:25;13.70;99.90
7654;DHT22;3869;48.406;10.774;2022-10-16T01:13:57;13.70;99.90
7654;DHT22;3869;48.406;10.774;2022-10-16T01:16:31;13.80;99.90
7654;DHT22;3869;48.406;10.774;2022-10-16T01:19:08;13.80;99.90
7654;DHT22;3869;48.406;10.774;2022-10-16T01:21:41;13.80;99.90
7654;DHT22;3869;48.406;10.774;2022-10-16T01:24:17;13.80;99.90
7654;DHT22;3869;48.406;10.774;2022-10-16T01:27:12;13.80;99.90
7654;DHT22;3869;48.406;10.774;2022-10-16T01:29:48;13.80;99.90
7654;DHT22;3869;48.406;10.774;2022-10-16T01:32:23;13.80;99.90
7654;DHT22;3869;48.406;10.774;2022-10-16T01:34:59;13.80;99.90
7654;DHT22;3869;48.406;10.774;2022-10-16T01:37:32;13.80;99.90
7654;DHT22;3869;48.406;10.774;2022-10-16T01:40:06;13.80;99.90
7654;DHT22;3869;48.406;10.774;2022-10-16T01:42:40;13.80;99.90
7654;DHT22;3869;48.406;10.774;2022-10-16T01:45:12;13.70;99.90
7654;DHT22;3869;48.406;10.774;2022-10-16T01:47:41;13.70;99.90
7654;DHT22;3869;48.406;10.774;2022-10-16T01:50:12;13.60;99.90
7654;DHT22;3869;48.406;10.774;2022-10-16T01:52:44;13.60;99.90
7654;DHT22;3869;48.406;10.774;2022-10-16T01:55:16;13.50;99.90
7654;DHT22;3869;48.406;10.774;2022-10-16T01:57:48;13.50;99.90
7654;DHT22;3869;48.406;10.774;2022-10-16T02:00:19;13.50;99.90
7654;DHT22;3869;48.406;10.774;2022-10-16T02:02:49;13.50;99.90
7654;DHT22;3869;48.406;10.774;2022-10-16T02:05:23;13.40;99.90
7654;DHT22;3869;48.406;10.774;2022-10-16T02:07:52;13.40;99.90
7654;DHT22;3869;48.406;10.774;2022-10-16T02:10:21;13.40;99.90
7654;DHT22;3869;48.406;10.774;2022-10-16T02:12:56;13.40;99.90
7654;DHT22;3869;48.406;10.774;2022-10-16T02:15:26;13.40;99.90
7654;DHT22;3869;48.406;10.774;2022-10-16T02:17:54;13.40;99.90
7654;DHT22;3869;48.406;10.774;2022-10-16T02:20:25;13.40;99.90
7654;DHT22;3869;48.406;10.774;2022-10-16T02:22:55;13.40;99.90
7654;DHT22;3869;48.406;10.774;2022-10-16T02:25:28;13.40;99.90
7654;DHT22;3869;48.406;10.774;2022-10-16T02:28:01;13.30;99.90
7654;DHT22;3869;48.406;10.774;2022-10-16T02:30:34;13.30;99.90
7654;DHT22;3869;48.406;10.774;2022-10-16T02:33:06;13.30;99.90
7654;DHT22;3869;48.406;10.774;2022-10-16T02:35:36;13.30;99.90
7654;DHT22;3869;48.406;10.774;2022-10-16T02:38:06;13.30;99.90
7654;DHT22;3869;48.406;10.774;2022-10-16T02:40:36;13.30;99.90
7654;DHT22;3869;48.406;10.774;2022-10-16T02:43:06;13.30;99.90
7654;DHT22;3869;48.406;10.774;2022-10-16T02:45:34;13.30;99.90
7654;DHT22;3869;48.406;10.774;2022-10-16T02:48:02;13.30;99.90
7654;DHT22;3869;48.406;10.774;2022-10-16T02:50:30;13.30;99.90
7654;DHT22;3869;48.406;10.774;2022-10-16T02:52:58;13.30;99.90
7654;DHT22;3869;48.406;10.774;2022-10-16T02:55:27;13.30;99.90
7654;DHT22;3869;48.406;10.774;2022-10-16T02:57:55;13.30;99.90
7654;DHT22;3869;48.406;10.774;2022-10-16T03:00:24;13.30;99.90
7654;DHT22;3869;48.406;10.774;2022-10-16T03:02:52;13.30;99.90
7654;DHT22;3869;48.406;10.774;2022-10-16T03:05:20;13.40;99.90
7654;DHT22;3869;48.406;10.774;2022-10-16T03:07:48;13.40;99.90
7654;DHT22;3869;48.406;10.774;2022-10-16T03:10:16;13.40;99.90
7654;DHT22;3869;48.406;10.774;2022-10-16T03:12:44;13.40;99.90
7654;DHT22;3869;48.406;10.774;2022-10-16T03:15:12;13.40;99.90
7654;DHT22;3869;48.406;10.774;2022-10-16T03:17:42;13.40;99.90
7654;DHT22;3869;48.406;10.774;2022-10-16T03:20:10;13.40;99.90
7654;DHT22;3869;48.406;10.774;2022-10-16T03:22:38;13.40;99.90
7654;DHT22;3869;48.406;10.774;2022-10-16T03:25:07;13.40;99.90
7654;DHT22;3869;48.406;10.774;2022-10-16T03:27:35;13.40;99.90
7654;DHT22;3869;48.406;10.774;2022-10-16T03:30:03;13.50;99.90
7654;DHT22;3869;48.406;10.774;2022-10-16T03:32:32;13.50;99.90
7654;DHT22;3869;48.406;10.774;2022-10-16T03:35:07;13.50;99.90
7654;DHT22;3869;48.406;10.774;2022-10-16T03:37:35;13.50;99.90
7654;DHT22;3869;48.406;10.774;2022-10-16T03:40:03;13.50;99.90
7654;DHT22;3869;48.406;10.774;2022-10-16T03:42:32;13.40;99.90
7654;DHT22;3869;48.406;10.774;2022-10-16T03:44:59;13.30;99.90
7654;DHT22;3869;48.406;10.774;2022-10-16T03:47:28;13.30;99.90
7654;DHT22;3869;48.406;10.774;2022-10-16T03:49:56;13.40;99.90
7654;DHT22;3869;48.406;10.774;2022-10-16T03:52:25;13.40;99.90
7654;DHT22;3869;48.406;10.774;2022-10-16T03:54:53;13.40;99.90
7654;DHT22;3869;48.406;10.774;2022-10-16T03:57:21;13.50;99.90
7654;DHT22;3869;48.406;10.774;2022-10-16T03:59:49;13.50;99.90
7654;DHT22;3869;48.406;10.774;2022-10-16T04:02:17;13.60;99.90
7654;DHT22;3869;48.406;10.774;2022-10-16T04:04:45;13.60;99.90
7654;DHT22;3869;48.406;10.774;2022-10-16T04:07:13;13.60;99.90
7654;DHT22;3869;48.406;10.774;2022-10-16T04:09:42;13.60;99.90
7654;DHT22;3869;48.406;10.774;2022-10-16T04:12:10;13.60;99.90
7654;DHT22;3869;48.406;10.774;2022-10-16T04:14:38;13.60;99.90
7654;DHT22;3869;48.406;10.774;2022-10-16T04:17:06;13.60;99.90
7654;DHT22;3869;48.406;10.774;2022-10-16T04:19:34;13.70;99.90
7654;DHT22;3869;48.406;10.774;2022-10-16T04:22:02;13.60;99.90
7654;DHT22;3869;48.406;10.774;2022-10-16T04:24:30;13.70;99.90
7654;DHT22;3869;48.406;10.774;2022-10-16T04:27:00;13.70;99.90
7654;DHT22;3869;48.406;10.774;2022-10-16T04:29:28;13.60;99.90
7654;DHT22;3869;48.406;10.774;2022-10-16T04:31:56;13.70;99.90
7654;DHT22;3869;48.406;10.774;2022-10-16T04:34:24;13.70;99.90
7654;DHT22;3869;48.406;10.774;2022-10-16T04:36:52;13.70;99.90
7654;DHT22;3869;48.406;10.774;2022-10-16T04:39:20;13.70;99.90
7654;DHT22;3869;48.406;10.774;2022-10-16T04:41:48;13.70;99.90
7654;DHT22;3869;48.406;10.774;2022-10-16T04:44:17;13.70;99.90
7654;DHT22;3869;48.406;10.774;2022-10-16T04:46:45;13.70;99.90
7654;DHT22;3869;48.406;10.774;2022-10-16T04:49:13;13.70;99.90
7654;DHT22;3869;48.406;10.774;2022-10-16T04:51:41;13.70;99.90
7654;DHT22;3869;48.406;10.774;2022-10-16T04:54:10;13.70;99.90
7654;DHT22;3869;48.406;10.774;2022-10-16T04:56:38;13.70;99.90
7654;DHT22;3869;48.406;10.774;2022-10-16T04:59:14;13.70;99.90
7654;DHT22;3869;48.406;10.774;2022-10-16T05:01:43;13.60;99.90
7654;DHT22;3869;48.406;10.774;2022-10-16T05:04:11;13.60;99.90
7654;DHT22;3869;48.406;10.774;2022-10-16T05:06:42;13.60;99.90
7654;DHT22;3869;48.406;10.774;2022-10-16T05:09:10;13.60;99.90
7654;DHT22;3869;48.406;10.774;2022-10-16T05:11:38;13.50;99.90
7654;DHT22;3869;48.406;10.774;2022-10-16T05:14:06;13.50;99.90
7654;DHT22;3869;48.406;10.774;2022-10-16T05:16:34;13.50;99.90
7654;DHT22;3869;48.406;10.774;2022-10-16T05:19:03;13.50;99.90
7654;DHT22;3869;48.406;10.774;2022-10-16T05:21:51;13.50;99.90
7654;DHT22;3869;48.406;10.774;2022-10-16T05:24:19;13.50;99.90
7654;DHT22;3869;48.406;10.774;2022-10-16T05:26:47;13.50;99.90
7654;DHT22;3869;48.406;10.774;2022-10-16T05:29:15;13.50;99.90
7654;DHT22;3869;48.406;10.774;2022-10-16T05:31:43;13.40;99.90
7654;DHT22;3869;48.406;10.774;2022-10-16T05:34:12;13.40;99.90
7654;DHT22;3869;48.406;10.774;2022-10-16T05:36:40;13.40;99.90
7654;DHT22;3869;48.406;10.774;2022-10-16T05:39:08;13.40;99.90
7654;DHT22;3869;48.406;10.774;2022-10-16T05:41:36;13.40;99.90
7654;DHT22;3869;48.406;10.774;2022-10-16T05:44:04;13.40;99.90
7654;DHT22;3869;48.406;10.774;2022-10-16T05:46:33;13.40;99.90
7654;DHT22;3869;48.406;10.774;2022-10-16T05:49:01;13.30;99.90
7654;DHT22;3869;48.406;10.774;2022-10-16T05:51:31;13.20;99.90
7654;DHT22;3869;48.406;10.774;2022-10-16T05:53:59;13.20;99.90
7654;DHT22;3869;48.406;10.774;2022-10-16T05:56:26;13.20;99.90
7654;DHT22;3869;48.406;10.774;2022-10-16T05:58:55;13.10;99.90
7654;DHT22;3869;48.406;10.774;2022-10-16T06:01:23;13.10;99.90
7654;DHT22;3869;48.406;10.774;2022-10-16T06:03:52;13.10;99.90
7654;DHT22;3869;48.406;10.774;2022-10-16T06:06:22;13.10;99.90
7654;DHT22;3869;48.406;10.774;2022-10-16T06:08:53;13.10;99.90
7654;DHT22;3869;48.406;10.774;2022-10-16T06:11:22;13.10;99.90
7654;DHT22;3869;48.406;10.774;2022-10-16T06:13:51;13.20;99.90
7654;DHT22;3869;48.406;10.774;2022-10-16T06:16:20;13.20;99.90
7654;DHT22;3869;48.406;10.774;2022-10-16T06:18:50;13.20;99.90
7654;DHT22;3869;48.406;10.774;2022-10-16T06:21:20;13.30;99.90
7654;DHT22;3869;48.406;10.774;2022-10-16T06:23:48;13.30;99.90
7654;DHT22;3869;48.406;10.774;2022-10-16T06:26:19;13.30;99.90
7654;DHT22;3869;48.406;10.774;2022-10-16T06:28:48;13.30;99.90
7654;DHT22;3869;48.406;10.774;2022-10-16T06:31:16;13.20;99.90
7654;DHT22;3869;48.406;10.774;2022-10-16T06:33:44;13.20;99.90
7654;DHT22;3869;48.406;10.774;2022-10-16T06:36:16;13.30;99.90
7654;DHT22;3869;48.406;10.774;2022-10-16T06:38:44;13.30;99.90
7654;DHT22;3869;48.406;10.774;2022-10-16T06:41:14;13.30;99.90
7654;DHT22;3869;48.406;10.774;2022-10-16T06:43:44;13.40;99.90
7654;DHT22;3869;48.406;10.774;2022-10-16T06:46:13;13.40;99.90
7654;DHT22;3869;48.406;10.774;2022-10-16T06:48:42;13.50;99.90
7654;DHT22;3869;48.406;10.774;2022-10-16T06:51:11;13.60;99.90
7654;DHT22;3869;48.406;10.774;2022-10-16T06:53:41;13.60;99.90
7654;DHT22;3869;48.406;10.774;2022-10-16T06:56:28;13.70;99.90
7654;DHT22;3869;48.406;10.774;2022-10-16T06:58:59;13.70;99.90
7654;DHT22;3869;48.406;10.774;2022-10-16T07:01:27;13.80;99.90
7654;DHT22;3869;48.406;10.774;2022-10-16T07:03:56;13.80;99.90
7654;DHT22;3869;48.406;10.774;2022-10-16T07:06:25;13.90;99.90
7654;DHT22;3869;48.406;10.774;2022-10-16T07:08:53;14.00;99.90
7654;DHT22;3869;48.406;10.774;2022-10-16T07:11:22;14.10;99.90
7654;DHT22;3869;48.406;10.774;2022-10-16T07:13:51;14.20;99.90
7654;DHT22;3869;48.406;10.774;2022-10-16T07:16:25;14.20;99.90
7654;DHT22;3869;48.406;10.774;2022-10-16T07:18:54;14.30;99.90
7654;DHT22;3869;48.406;10.774;2022-10-16T07:21:27;14.40;99.90
7654;DHT22;3869;48.406;10.774;2022-10-16T07:23:58;14.50;99.90
7654;DHT22;3869;48.406;10.774;2022-10-16T07:26:30;14.60;99.90
7654;DHT22;3869;48.406;10.774;2022-10-16T07:28:58;14.70;99.90
7654;DHT22;3869;48.406;10.774;2022-10-16T07:31:28;14.80;99.90
7654;DHT22;3869;48.406;10.774;2022-10-16T07:33:58;14.80;99.90
7654;DHT22;3869;48.406;10.774;2022-10-16T07:36:26;14.90;99.90
7654;DHT22;3869;48.406;10.774;2022-10-16T07:38:54;15.00;99.90
7654;DHT22;3869;48.406;10.774;2022-10-16T07:41:26;15.00;99.90
7654;DHT22;3869;48.406;10.774;2022-10-16T07:43:55;15.10;99.90
7654;DHT22;3869;48.406;10.774;2022-10-16T07:46:24;15.10;99.90
7654;DHT22;3869;48.406;10.774;2022-10-16T07:48:53;15.20;99.90
7654;DHT22;3869;48.406;10.774;2022-10-16T07:51:22;15.30;99.90
7654;DHT22;3869;48.406;10.774;2022-10-16T07:53:51;15.40;99.90
7654;DHT22;3869;48.406;10.774;2022-10-16T07:56:20;15.50;99.90
7654;DHT22;3869;48.406;10.774;2022-10-16T07:58:50;15.50;99.90
7654;DHT22;3869;48.406;10.774;2022-10-16T08:01:19;15.60;99.90
7654;DHT22;3869;48.406;10.774;2022-10-16T08:03:48;15.70;99.90
7654;DHT22;3869;48.406;10.774;2022-10-16T08:06:19;15.90;99.90
7654;DHT22;3869;48.406;10.774;2022-10-16T08:08:54;15.90;99.90
7654;DHT22;3869;48.406;10.774;2022-10-16T08:11:22;16.00;99.90
7654;DHT22;3869;48.406;10.774;2022-10-16T08:13:50;16.10;99.90
7654;DHT22;3869;48.406;10.774;2022-10-16T08:16:18;16.30;99.90
7654;DHT22;3869;48.406;10.774;2022-10-16T08:18:46;16.30;99.90
7654;DHT22;3869;48.406;10.774;2022-10-16T08:21:16;16.50;99.90
7654;DHT22;3869;48.406;10.774;2022-10-16T08:23:49;16.60;99.90
7654;DHT22;3869;48.406;10.774;2022-10-16T08:26:24;16.70;99.90
7654;DHT22;3869;48.406;10.774;2022-10-16T08:28:52;16.80;99.90
7654;DHT22;3869;48.406;10.774;2022-10-16T08:31:20;16.90;99.90
7654;DHT22;3869;48.406;10.774;2022-10-16T08:33:49;17.10;99.90
7654;DHT22;3869;48.406;10.774;2022-10-16T08:36:18;17.10;99.90
7654;DHT22;3869;48.406;10.774;2022-10-16T08:38:49;17.30;99.90
7654;DHT22;3869;48.406;10.774;2022-10-16T08:44:30;17.50;99.90
7654;DHT22;3869;48.406;10.774;2022-10-16T08:47:11;17.60;99.90
7654;DHT22;3869;48.406;10.774;2022-10-16T08:49:43;17.70;99.90
7654;DHT22;3869;48.406;10.774;2022-10-16T08:52:14;17.80;99.90
7654;DHT22;3869;48.406;10.774;2022-10-16T08:54:47;17.90;99.90
7654;DHT22;3869;48.406;10.774;2022-10-16T08:57:20;18.00;99.90
7654;DHT22;3869;48.406;10.774;2022-10-16T08:59:51;18.10;99.90
7654;DHT22;3869;48.406;10.774;2022-10-16T09:02:27;18.20;99.90
7654;DHT22;3869;48.406;10.774;2022-10-16T09:05:17;18.30;99.90
7654;DHT22;3869;48.406;10.774;2022-10-16T09:07:55;18.40;99.90
7654;DHT22;3869;48.406;10.774;2022-10-16T09:10:41;18.50;99.90
7654;DHT22;3869;48.406;10.774;2022-10-16T09:13:19;18.60;99.90
7654;DHT22;3869;48.406;10.774;2022-10-16T09:15:55;18.60;99.90
7654;DHT22;3869;48.406;10.774;2022-10-16T09:18:31;18.70;99.90
7654;DHT22;3869;48.406;10.774;2022-10-16T09:21:06;18.80;99.90
7654;DHT22;3869;48.406;10.774;2022-10-16T09:23:37;18.80;99.90
7654;DHT22;3869;48.406;10.774;2022-10-16T09:26:11;18.90;99.90
7654;DHT22;3869;48.406;10.774;2022-10-16T09:28:39;18.90;99.90
7654;DHT22;3869;48.406;10.774;2022-10-16T09:31:13;18.90;99.90
7654;DHT22;3869;48.406;10.774;2022-10-16T09:33:45;19.00;99.90
7654;DHT22;3869;48.406;10.774;2022-10-16T09:36:15;19.00;99.90
7654;DHT22;3869;48.406;10.774;2022-10-16T09:38:43;19.00;99.90
7654;DHT22;3869;48.406;10.774;2022-10-16T09:41:17;19.10;99.90
7654;DHT22;3869;48.406;10.774;2022-10-16T09:43:49;19.10;99.90
7654;DHT22;3869;48.406;10.774;2022-10-16T09:46:26;19.20;99.90
7654;DHT22;3869;48.406;10.774;2022-10-16T09:48:57;19.20;99.90
7654;DHT22;3869;48.406;10.774;2022-10-16T09:51:27;19.20;99.90
7654;DHT22;3869;48.406;10.774;2022-10-16T09:53:58;19.30;99.90
7654;DHT22;3869;48.406;10.774;2022-10-16T09:56:29;19.30;99.90
7654;DHT22;3869;48.406;10.774;2022-10-16T09:59:00;19.30;99.90
7654;DHT22;3869;48.406;10.774;2022-10-16T10:01:31;19.30;99.90
7654;DHT22;3869;48.406;10.774;2022-10-16T10:04:03;19.30;99.90
7654;DHT22;3869;48.406;10.774;2022-10-16T10:06:34;19.40;99.90
7654;DHT22;3869;48.406;10.774;2022-10-16T10:09:17;19.40;99.90
7654;DHT22;3869;48.406;10.774;2022-10-16T10:11:53;19.50;99.90
7654;DHT22;3869;48.406;10.774;2022-10-16T10:14:24;19.50;99.90
7654;DHT22;3869;48.406;10.774;2022-10-16T10:17:13;19.60;99.90
7654;DHT22;3869;48.406;10.774;2022-10-16T10:19:46;19.60;99.90
7654;DHT22;3869;48.406;10.774;2022-10-16T10:22:24;19.60;99.90
7654;DHT22;3869;48.406;10.774;2022-10-16T10:24:57;19.70;99.90
7654;DHT22;3869;48.406;10.774;2022-10-16T10:27:34;19.80;99.90
7654;DHT22;3869;48.406;10.774;2022-10-16T10:30:13;19.80;99.90
7654;DHT22;3869;48.406;10.774;2022-10-16T10:32:55;19.90;99.90
7654;DHT22;3869;48.406;10.774;2022-10-16T10:35:31;19.80;99.90
7654;DHT22;3869;48.406;10.774;2022-10-16T10:38:13;19.90;99.90
7654;DHT22;3869;48.406;10.774;2022-10-16T10:40:50;19.90;99.90
7654;DHT22;3869;48.406;10.774;2022-10-16T10:43:30;19.90;99.90
7654;DHT22;3869;48.406;10.774;2022-10-16T10:46:03;19.90;99.90
7654;DHT22;3869;48.406;10.774;2022-10-16T10:48:49;20.00;99.90
7654;DHT22;3869;48.406;10.774;2022-10-16T10:51:24;20.10;99.90
7654;DHT22;3869;48.406;10.774;2022-10-16T10:54:01;20.10;99.90
7654;DHT22;3869;48.406;10.774;2022-10-16T10:56:43;20.10;99.90
7654;DHT22;3869;48.406;10.774;2022-10-16T10:59:28;20.20;99.90
7654;DHT22;3869;48.406;10.774;2022-10-16T11:02:01;20.20;99.90
7654;DHT22;3869;48.406;10.774;2022-10-16T11:04:55;20.30;99.90
7654;DHT22;3869;48.406;10.774;2022-10-16T11:07:31;20.30;99.90
7654;DHT22;3869;48.406;10.774;2022-10-16T11:10:04;20.50;99.90
7654;DHT22;3869;48.406;10.774;2022-10-16T11:12:38;20.50;99.90
7654;DHT22;3869;48.406;10.774;2022-10-16T11:15:14;20.50;99.90
7654;DHT22;3869;48.406;10.774;2022-10-16T11:17:48;20.60;99.90
7654;DHT22;3869;48.406;10.774;2022-10-16T11:20:20;20.60;99.90
7654;DHT22;3869;48.406;10.774;2022-10-16T11:22:52;20.70;99.90
7654;DHT22;3869;48.406;10.774;2022-10-16T11:25:25;20.70;99.90
7654;DHT22;3869;48.406;10.774;2022-10-16T11:27:59;20.80;99.90
7654;DHT22;3869;48.406;10.774;2022-10-16T11:30:31;20.80;99.90
7654;DHT22;3869;48.406;10.774;2022-10-16T11:33:13;20.90;99.90
7654;DHT22;3869;48.406;10.774;2022-10-16T11:35:51;20.90;99.90
7654;DHT22;3869;48.406;10.774;2022-10-16T11:38:28;20.90;99.90
7654;DHT22;3869;48.406;10.774;2022-10-16T11:41:00;20.90;99.90
7654;DHT22;3869;48.406;10.774;2022-10-16T11:43:34;20.90;99.90
7654;DHT22;3869;48.406;10.774;2022-10-16T11:46:10;20.90;99.90
7654;DHT22;3869;48.406;10.774;2022-10-16T11:48:43;20.90;99.90
7654;DHT22;3869;48.406;10.774;2022-10-16T11:51:17;20.90;99.90
7654;DHT22;3869;48.406;10.774;2022-10-16T11:53:53;20.90;99.90
7654;DHT22;3869;48.406;10.774;2022-10-16T11:56:24;21.00;99.90
7654;DHT22;3869;48.406;10.774;2022-10-16T11:58:58;21.00;99.90
7654;DHT22;3869;48.406;10.774;2022-10-16T12:01:32;21.00;99.90
7654;DHT22;3869;48.406;10.774;2022-10-16T12:04:07;21.00;99.90
7654;DHT22;3869;48.406;10.774;2022-10-16T12:06:42;21.10;99.90
7654;DHT22;3869;48.406;10.774;2022-10-16T12:09:16;21.10;99.90
7654;DHT22;3869;48.406;10.774;2022-10-16T12:11:47;21.10;99.90
7654;DHT22;3869;48.406;10.774;2022-10-16T12:17:27;21.20;99.90
7654;DHT22;3869;48.406;10.774;2022-10-16T12:20:23;21.20;99.90
7654;DHT22;3869;48.406;10.774;2022-10-16T12:22:54;21.30;99.90
7654;DHT22;3869;48.406;10.774;2022-10-16T12:25:25;21.40;99.90
7654;DHT22;3869;48.406;10.774;2022-10-16T12:27:59;21.50;99.90
7654;DHT22;3869;48.406;10.774;2022-10-16T12:30:30;21.50;99.90
7654;DHT22;3869;48.406;10.774;2022-10-16T12:33:04;21.50;99.90
7654;DHT22;3869;48.406;10.774;2022-10-16T12:35:34;21.60;99.90
7654;DHT22;3869;48.406;10.774;2022-10-16T12:38:17;21.60;99.90
7654;DHT22;3869;48.406;10.774;2022-10-16T12:40:47;21.60;99.90
7654;DHT22;3869;48.406;10.774;2022-10-16T12:43:38;21.60;99.90
7654;DHT22;3869;48.406;10.774;2022-10-16T12:46:23;21.60;99.90
7654;DHT22;3869;48.406;10.774;2022-10-16T12:48:52;21.70;99.90
7654;DHT22;3869;48.406;10.774;2022-10-16T12:51:35;21.70;99.90
7654;DHT22;3869;48.406;10.774;2022-10-16T12:54:09;21.70;99.90
7654;DHT22;3869;48.406;10.774;2022-10-16T12:56:50;21.70;99.90
7654;DHT22;3869;48.406;10.774;2022-10-16T12:59:25;21.80;99.90
7654;DHT22;3869;48.406;10.774;2022-10-16T13:02:11;21.80;99.90
7654;DHT22;3869;48.406;10.774;2022-10-16T13:05:01;21.80;99.90
7654;DHT22;3869;48.406;10.774;2022-10-16T13:07:48;21.90;99.90
7654;DHT22;3869;48.406;10.774;2022-10-16T13:10:25;21.90;99.90
7654;DHT22;3869;48.406;10.774;2022-10-16T13:13:13;22.00;99.90
7654;DHT22;3869;48.406;10.774;2022-10-16T13:16:04;22.00;99.90
7654;DHT22;3869;48.406;10.774;2022-10-16T13:18:41;22.00;99.90
7654;DHT22;3869;48.406;10.774;2022-10-16T13:21:20;22.00;99.90
7654;DHT22;3869;48.406;10.774;2022-10-16T13:23:55;22.00;99.90
7654;DHT22;3869;48.406;10.774;2022-10-16T13:26:34;22.00;99.90
7654;DHT22;3869;48.406;10.774;2022-10-16T13:29:03;22.00;99.90
7654;DHT22;3869;48.406;10.774;2022-10-16T13:31:32;22.00;99.90
7654;DHT22;3869;48.406;10.774;2022-10-16T13:34:01;22.00;99.90
7654;DHT22;3869;48.406;10.774;2022-10-16T13:36:34;22.00;99.90
7654;DHT22;3869;48.406;10.774;2022-10-16T13:39:12;22.00;99.90
7654;DHT22;3869;48.406;10.774;2022-10-16T13:41:40;22.00;99.90
7654;DHT22;3869;48.406;10.774;2022-10-16T13:44:14;22.00;99.90
7654;DHT22;3869;48.406;10.774;2022-10-16T13:46:42;22.00;99.90
7654;DHT22;3869;48.406;10.774;2022-10-16T13:49:13;22.00;99.90
7654;DHT22;3869;48.406;10.774;2022-10-16T13:51:54;22.00;99.90
7654;DHT22;3869;48.406;10.774;2022-10-16T13:54:22;22.00;99.90
7654;DHT22;3869;48.406;10.774;2022-10-16T13:56:50;22.00;99.90
7654;DHT22;3869;48.406;10.774;2022-10-16T13:59:36;21.90;99.90
7654;DHT22;3869;48.406;10.774;2022-10-16T14:02:14;21.90;99.90
7654;DHT22;3869;48.406;10.774;2022-10-16T14:04:44;21.90;99.90
7654;DHT22;3869;48.406;10.774;2022-10-16T14:07:18;21.90;99.90
7654;DHT22;3869;48.406;10.774;2022-10-16T14:09:48;21.80;99.90
7654;DHT22;3869;48.406;10.774;2022-10-16T14:12:17;21.80;99.90
7654;DHT22;3869;48.406;10.774;2022-10-16T14:14:52;21.70;99.90
7654;DHT22;3869;48.406;10.774;2022-10-16T14:17:23;21.60;99.90
7654;DHT22;3869;48.406;10.774;2022-10-16T14:19:54;21.60;99.90
7654;DHT22;3869;48.406;10.774;2022-10-16T14:22:33;21.50;99.90
7654;DHT22;3869;48.406;10.774;2022-10-16T14:25:08;21.50;99.90
7654;DHT22;3869;48.406;10.774;2022-10-16T14:27:44;21.50;99.90
7654;DHT22;3869;48.406;10.774;2022-10-16T14:30:15;21.40;99.90
7654;DHT22;3869;48.406;10.774;2022-10-16T14:32:54;21.40;99.90
7654;DHT22;3869;48.406;10.774;2022-10-16T14:35:25;21.30;99.90
7654;DHT22;3869;48.406;10.774;2022-10-16T14:37:56;21.30;99.90
7654;DHT22;3869;48.406;10.774;2022-10-16T14:40:26;21.20;99.90
7654;DHT22;3869;48.406;10.774;2022-10-16T14:42:55;21.20;99.90
7654;DHT22;3869;48.406;10.774;2022-10-16T14:45:26;21.20;99.90
7654;DHT22;3869;48.406;10.774;2022-10-16T14:47:57;21.10;99.90
7654;DHT22;3869;48.406;10.774;2022-10-16T14:50:25;21.10;99.90
7654;DHT22;3869;48.406;10.774;2022-10-16T14:52:54;21.00;99.90
7654;DHT22;3869;48.406;10.774;2022-10-16T14:55:23;21.00;99.90
7654;DHT22;3869;48.406;10.774;2022-10-16T14:57:51;21.00;99.90
7654;DHT22;3869;48.406;10.774;2022-10-16T15:00:26;20.90;99.90
7654;DHT22;3869;48.406;10.774;2022-10-16T15:02:54;20.80;99.90
7654;DHT22;3869;48.406;10.774;2022-10-16T15:05:24;20.80;99.90
7654;DHT22;3869;48.406;10.774;2022-10-16T15:07:55;20.70;99.90
7654;DHT22;3869;48.406;10.774;2022-10-16T15:10:24;20.60;99.90
7654;DHT22;3869;48.406;10.774;2022-10-16T15:12:54;20.50;99.90
7654;DHT22;3869;48.406;10.774;2022-10-16T15:15:32;20.50;99.90
7654;DHT22;3869;48.406;10.774;2022-10-16T15:18:01;20.40;99.90
7654;DHT22;3869;48.406;10.774;2022-10-16T15:20:31;20.30;99.90
7654;DHT22;3869;48.406;10.774;2022-10-16T15:23:03;20.30;99.90
7654;DHT22;3869;48.406;10.774;2022-10-16T15:25:37;20.20;99.90
7654;DHT22;3869;48.406;10.774;2022-10-16T15:28:06;20.10;99.90
7654;DHT22;3869;48.406;10.774;2022-10-16T15:33:00;20.00;99.90
7654;DHT22;3869;48.406;10.774;2022-10-16T15:35:28;19.90;99.90
7654;DHT22;3869;48.406;10.774;2022-10-16T15:37:56;19.80;99.90
7654;DHT22;3869;48.406;10.774;2022-10-16T15:40:25;19.80;99.90
7654;DHT22;3869;48.406;10.774;2022-10-16T15:42:53;19.70;99.90
7654;DHT22;3869;48.406;10.774;2022-10-16T15:45:21;19.70;99.90
7654;DHT22;3869;48.406;10.774;2022-10-16T15:47:49;19.60;99.90
7654;DHT22;3869;48.406;10.774;2022-10-16T15:50:17;19.60;99.90
7654;DHT22;3869;48.406;10.774;2022-10-16T15:52:45;19.50;99.90
7654;DHT22;3869;48.406;10.774;2022-10-16T15:55:14;19.40;99.90
7654;DHT22;3869;48.406;10.774;2022-10-16T15:57:43;19.40;99.90
7654;DHT22;3869;48.406;10.774;2022-10-16T16:00:14;19.30;99.90
7654;DHT22;3869;48.406;10.774;2022-10-16T16:02:42;19.20;99.90
7654;DHT22;3869;48.406;10.774;2022-10-16T16:05:11;19.10;99.90
7654;DHT22;3869;48.406;10.774;2022-10-16T16:07:39;19.00;99.90
7654;DHT22;3869;48.406;10.774;2022-10-16T16:10:09;18.90;99.90
7654;DHT22;3869;48.406;10.774;2022-10-16T16:12:38;18.90;99.90
7654;DHT22;3869;48.406;10.774;2022-10-16T16:15:09;18.80;99.90
7654;DHT22;3869;48.406;10.774;2022-10-16T16:17:37;18.80;99.90
7654;DHT22;3869;48.406;10.774;2022-10-16T16:20:06;18.70;99.90
7654;DHT22;3869;48.406;10.774;2022-10-16T16:22:34;18.60;99.90